Time;durP1;ratioP1;P1;durP2;ratioP2;P2;SDS_P1;SDS_P2;PMS_P1;PMS_P2;Temp;Humidity;BMP_temperature;BMP_pressure;BME280_temperature;BME280_humidity;BME280_pressure;Samples;Min_cycle;Max_cycle;Signal;HPM_P1;HPM_P2
2022/05/24 00:01:03;;;;;;;9.58;7.03;;;;;;;9.41;59.04;98968.03;1707560;84;21509;-41
2022/05/24 00:03:31;;;;;;;14.43;7.10;;;;;;;9.38;59.32;98968.77;1685192;84;21013;-41
2022/05/24 00:05:59;;;;;;;12.37;7.17;;;;;;;9.36;59.73;98966.98;1678924;85;20961;-40
2022/05/24 00:08:26;;;;;;;13.65;7.08;;;;;;;9.34;59.52;98966.01;1679017;85;21689;-41
2022/05/24 00:10:54;;;;;;;13.90;7.65;;;;;;;9.31;59.80;98972.12;1679063;85;21017;-41
2022/05/24 00:13:23;;;;;;;12.60;7.55;;;;;;;9.28;59.72;98969.36;1679027;85;20966;-41
2022/05/24 00:15:50;;;;;;;10.82;6.97;;;;;;;9.24;59.33;98967.17;1679109;85;21052;-40
2022/05/24 00:18:21;;;;;;;13.58;7.25;;;;;;;9.25;59.67;98970.06;1657169;85;21053;-41
2022/05/24 00:20:52;;;;;;;14.05;8.50;;;;;;;9.23;59.83;98970.44;1691694;84;21586;-41
2022/05/24 00:23:20;;;;;;;14.00;8.08;;;;;;;9.22;60.09;98963.46;1685424;85;21081;-41
2022/05/24 00:25:52;;;;;;;13.95;8.58;;;;;;;9.19;60.04;98972.87;1692673;84;21208;-41
2022/05/24 00:28:20;;;;;;;17.20;8.53;;;;;;;9.15;59.93;98969.52;1657993;85;21508;-40
2022/05/24 00:30:48;;;;;;;15.75;8.48;;;;;;;9.11;59.68;98971.37;1692425;84;21010;-40
2022/05/24 00:33:14;;;;;;;13.35;8.00;;;;;;;9.09;60.02;98968.27;1685344;85;20970;-41
2022/05/24 00:35:42;;;;;;;16.12;8.30;;;;;;;9.05;59.94;98968.75;1692457;84;20998;-41
2022/05/24 00:38:10;;;;;;;14.03;7.92;;;;;;;9.02;59.98;98983.00;1685382;85;22200;-41
2022/05/24 00:41:13;;;;;;;14.00;7.72;;;;;;;9.00;60.40;98978.53;1667788;86;20963;-41
2022/05/24 00:43:59;;;;;;;19.12;8.50;;;;;;;8.97;60.00;98981.93;1692384;84;21092;-40
2022/05/24 00:46:36;;;;;;;14.07;8.48;;;;;;;8.93;59.85;98991.11;1685385;85;21547;-40
2022/05/24 00:49:16;;;;;;;15.75;8.50;;;;;;;8.90;59.58;98991.27;1691649;84;21520;-41
2022/05/24 00:51:47;;;;;;;14.47;6.50;;;;;;;8.88;59.55;98981.94;1648624;86;21156;-40
2022/05/24 00:54:14;;;;;;;12.05;8.03;;;;;;;8.87;59.52;98988.48;1729610;83;21030;-41
2022/05/24 00:56:52;;;;;;;18.45;8.70;;;;;;;8.86;59.29;98993.09;1729803;82;21790;-41
2022/05/24 00:59:45;;;;;;;15.58;8.40;;;;;;;8.84;59.13;98989.98;1729653;83;21021;-40
2022/05/24 01:02:12;;;;;;;16.48;8.88;;;;;;;8.83;59.47;98998.45;1729662;82;21513;-40
2022/05/24 01:04:41;;;;;;;16.15;7.92;;;;;;;8.78;59.32;98999.52;1729706;83;21137;-40
2022/05/24 01:07:08;;;;;;;17.42;8.93;;;;;;;8.77;59.94;98996.59;1729451;83;21076;-40
2022/05/24 01:09:42;;;;;;;12.47;8.63;;;;;;;8.77;60.22;99001.21;1719775;82;21005;-40
2022/05/24 01:12:15;;;;;;;17.02;8.53;;;;;;;8.71;60.40;98992.63;1679011;85;21061;-40
2022/05/24 01:14:42;;;;;;;15.53;8.00;;;;;;;8.66;60.44;98995.05;1713836;83;21014;-40
2022/05/24 01:17:08;;;;;;;14.65;8.65;;;;;;;8.64;60.47;98993.83;1713858;83;21150;-40
2022/05/24 01:19:46;;;;;;;19.60;8.50;;;;;;;8.62;60.59;98989.33;1713839;82;21017;-40
2022/05/24 01:22:53;;;;;;;10.58;7.17;;;;;;;8.61;60.84;98985.09;1713943;82;21073;-41
2022/05/24 01:25:44;;;;;;;13.22;7.92;;;;;;;8.62;61.03;98994.17;1679255;85;21056;-40
2022/05/24 01:28:41;;;;;;;14.98;8.43;;;;;;;8.62;60.65;98992.81;1713965;83;21058;-40
2022/05/24 01:31:09;;;;;;;13.72;8.00;;;;;;;8.62;60.78;98994.73;1679223;85;21590;-40
2022/05/24 01:36:25;;;;;;;16.50;8.63;;;;;;;8.60;60.34;98991.62;1713896;82;21548;-40
2022/05/24 01:39:02;;;;;;;16.15;7.80;;;;;;;8.59;60.12;98991.41;1679457;85;20939;-40
2022/05/24 01:41:44;;;;;;;16.57;8.80;;;;;;;8.56;60.10;98993.47;1679182;85;21499;-41
2022/05/24 01:44:11;;;;;;;19.70;9.13;;;;;;;8.55;60.40;98991.91;1679139;85;21255;-40
2022/05/24 01:46:43;;;;;;;14.95;7.97;;;;;;;8.51;60.44;98993.75;1658447;85;21033;-40
2022/05/24 01:49:18;;;;;;;14.95;8.50;;;;;;;8.50;60.40;98994.31;1713734;82;20982;-40
2022/05/24 01:52:04;;;;;;;16.87;8.73;;;;;;;8.47;60.67;99006.41;1679223;85;20961;-40
2022/05/24 01:54:33;;;;;;;12.93;8.15;;;;;;;8.44;61.40;99007.88;1713796;83;21029;-40
2022/05/24 01:57:05;;;;;;;14.65;8.23;;;;;;;8.38;61.94;99004.45;1679348;85;21300;-40
2022/05/24 01:59:32;;;;;;;16.02;7.85;;;;;;;8.34;62.31;99007.64;1714115;83;21547;-41
2022/05/24 02:02:02;;;;;;;13.32;7.72;;;;;;;8.32;62.47;99012.06;1658870;85;21080;-40
2022/05/24 02:04:32;;;;;;;14.40;7.92;;;;;;;8.33;62.31;99010.16;1679223;85;21061;-40
2022/05/24 02:07:09;;;;;;;13.80;8.35;;;;;;;8.33;61.67;99009.56;1679513;85;20981;-40
2022/05/24 02:09:41;;;;;;;17.70;9.18;;;;;;;8.33;61.50;99007.45;1713917;83;21146;-40
2022/05/24 02:12:16;;;;;;;15.85;8.70;;;;;;;8.32;61.55;99016.69;1713157;82;21536;-40
2022/05/24 02:14:50;;;;;;;13.90;9.08;;;;;;;8.31;61.30;99007.01;1714079;83;21049;-40
2022/05/24 02:17:22;;;;;;;14.80;8.98;;;;;;;8.32;61.28;99020.73;1679565;85;20989;-40
2022/05/24 02:19:52;;;;;;;13.93;8.95;;;;;;;8.31;61.25;99019.16;1679452;85;21096;-40
2022/05/24 02:22:24;;;;;;;18.52;8.80;;;;;;;8.27;61.17;99013.09;1713904;83;21833;-40
2022/05/24 02:25:05;;;;;;;15.50;8.85;;;;;;;8.28;61.08;99014.64;1714016;82;21025;-40
2022/05/24 02:27:33;;;;;;;15.83;9.00;;;;;;;8.28;61.16;99011.16;1679712;85;21574;-41
2022/05/24 02:30:01;;;;;;;18.40;9.90;;;;;;;8.25;61.37;99010.52;1681157;83;22201;-41
2022/05/24 02:32:28;;;;;;;15.28;9.00;;;;;;;8.21;61.50;99011.80;1679362;85;21068;-40
2022/05/24 02:34:55;;;;;;;16.23;8.95;;;;;;;8.19;61.42;99007.30;1713798;83;23136;-40
2022/05/24 02:37:21;;;;;;;15.48;8.90;;;;;;;8.20;61.32;99015.63;1713781;83;21041;-40
2022/05/24 02:42:33;;;;;;;17.40;9.00;;;;;;;8.23;61.29;99012.77;1679157;85;21004;-40
2022/05/24 02:45:00;;;;;;;16.75;8.83;;;;;;;8.21;61.36;99017.20;1713761;83;21084;-40
2022/05/24 02:47:26;;;;;;;13.83;9.28;;;;;;;8.21;61.27;99019.90;1679048;85;21509;-40
2022/05/24 02:49:54;;;;;;;17.73;9.03;;;;;;;8.23;61.26;99021.66;1713832;83;21039;-40
2022/05/24 02:52:20;;;;;;;13.90;9.50;;;;;;;8.24;61.27;99021.88;1713777;82;21101;-40
2022/05/24 02:54:47;;;;;;;16.90;9.45;;;;;;;8.29;61.47;99022.99;1713734;83;20998;-40
2022/05/24 02:57:14;;;;;;;14.95;9.18;;;;;;;8.31;61.46;99029.97;1721186;82;21088;-41
2022/05/24 02:59:42;;;;;;;17.17;9.20;;;;;;;8.32;61.39;99027.48;1726642;82;21036;-41
2022/05/24 03:02:09;;;;;;;14.40;8.85;;;;;;;8.37;61.33;99031.27;1726313;82;21577;-40
2022/05/24 03:04:36;;;;;;;12.58;9.20;;;;;;;8.39;61.29;99038.43;1726494;82;21010;-41
2022/05/24 03:09:48;;;;;;;18.77;9.78;;;;;;;8.46;61.21;99043.44;1726814;83;21131;-41
2022/05/24 03:15:00;;;;;;;14.10;9.10;;;;;;;8.49;61.15;99042.72;1726645;82;21080;-41
2022/05/24 03:17:29;;;;;;;16.93;9.48;;;;;;;8.51;61.23;99052.62;1691328;84;20988;-41
2022/05/24 03:19:56;;;;;;;17.07;9.40;;;;;;;8.54;61.23;99055.17;1674386;85;21030;-41
2022/05/24 03:22:22;;;;;;;15.23;8.78;;;;;;;8.56;61.12;99054.27;1692047;84;21514;-41
2022/05/24 03:24:51;;;;;;;16.20;9.18;;;;;;;8.56;61.16;99054.27;1674462;85;21005;-41
2022/05/24 03:27:18;;;;;;;13.25;9.25;;;;;;;8.58;61.14;99047.92;1706048;83;20968;-41
2022/05/24 03:29:46;;;;;;;17.73;9.30;;;;;;;8.57;60.93;99043.08;1674451;85;20981;-41
2022/05/24 03:32:17;;;;;;;15.93;8.70;;;;;;;8.57;61.04;99051.75;1689664;84;20993;-45
2022/05/24 03:34:44;;;;;;;12.40;8.30;;;;;;;8.50;61.08;99040.24;1674314;85;21104;-41
2022/05/24 03:37:11;;;;;;;13.62;8.28;;;;;;;8.64;61.08;99050.57;1691775;84;21215;-41
2022/05/24 03:39:37;;;;;;;15.90;8.50;;;;;;;8.71;60.96;99055.55;1669569;85;20989;-41
2022/05/24 03:42:06;;;;;;;12.75;8.88;;;;;;;8.80;60.69;99049.95;1719405;83;20936;-41
2022/05/24 03:44:33;;;;;;;15.28;9.60;;;;;;;8.89;60.49;99051.88;1702559;84;21513;-41
2022/05/24 03:47:00;;;;;;;16.10;9.08;;;;;;;8.96;60.33;99055.28;1702618;84;21026;-41
2022/05/24 03:49:26;;;;;;;16.90;9.35;;;;;;;9.01;60.24;99050.38;1702749;84;22115;-41
2022/05/24 03:51:52;;;;;;;14.65;8.93;;;;;;;9.07;60.13;99057.06;1702715;84;21589;-41
2022/05/24 03:54:19;;;;;;;19.02;8.33;;;;;;;9.13;60.03;99058.36;1702846;84;20954;-41
2022/05/24 03:59:31;;;;;;;16.07;8.73;;;;;;;9.23;60.16;99067.81;1694581;84;21792;-41
2022/05/24 04:01:58;;;;;;;14.03;8.95;;;;;;;9.26;60.16;99066.30;1694542;84;21146;-41
2022/05/24 04:04:26;;;;;;;15.28;9.85;;;;;;;9.27;60.15;99068.66;1694553;84;20982;-41
2022/05/24 04:06:53;;;;;;;16.80;9.60;;;;;;;9.28;59.60;99070.23;1694330;84;20963;-41
2022/05/24 04:09:19;;;;;;;17.77;9.10;;;;;;;9.31;59.33;99072.77;1694181;84;21120;-41
2022/05/24 04:11:47;;;;;;;17.12;9.58;;;;;;;9.36;59.33;99075.20;1694446;84;21074;-41
2022/05/24 04:14:14;;;;;;;16.77;10.03;;;;;;;9.43;59.60;99078.05;1694295;84;21243;-41
2022/05/24 04:16:41;;;;;;;15.20;9.95;;;;;;;9.48;59.34;99076.41;1694339;84;20970;-41
2022/05/24 04:19:08;;;;;;;20.48;10.38;;;;;;;9.56;59.29;99080.80;1694376;84;21559;-41
2022/05/24 04:21:35;;;;;;;18.52;10.32;;;;;;;9.63;59.66;99076.88;1694279;84;21559;-41
2022/05/24 04:24:01;;;;;;;22.20;10.80;;;;;;;9.71;59.81;99083.97;1694385;84;21070;-41
2022/05/24 04:26:29;;;;;;;19.35;10.63;;;;;;;9.77;59.35;99084.45;1694324;84;21187;-41
2022/05/24 04:28:55;;;;;;;20.75;10.05;;;;;;;9.83;59.16;99081.64;1694152;84;21038;-41
2022/05/24 04:31:22;;;;;;;18.48;10.68;;;;;;;9.86;58.87;99081.73;1694489;84;21494;-41
2022/05/24 04:33:50;;;;;;;17.92;10.45;;;;;;;9.93;58.68;99087.25;1694161;84;21062;-41
2022/05/24 04:36:16;;;;;;;16.95;10.43;;;;;;;10.00;59.04;99086.02;1662092;84;21106;-41
2022/05/24 04:38:43;;;;;;;18.37;10.28;;;;;;;10.09;58.95;99091.19;1666558;86;21939;-41
2022/05/24 04:43:54;;;;;;;16.73;10.30;;;;;;;10.26;58.90;99090.70;1679039;85;21535;-41
2022/05/24 04:46:21;;;;;;;15.90;10.45;;;;;;;10.38;58.84;99092.45;1678881;85;20978;-41
2022/05/24 04:48:48;;;;;;;15.60;10.00;;;;;;;10.50;58.80;99096.32;1679107;85;21116;-42
2022/05/24 04:51:14;;;;;;;17.90;10.23;;;;;;;10.62;58.47;99097.45;1679003;85;21246;-42
2022/05/24 04:53:41;;;;;;;19.27;10.18;;;;;;;10.75;58.20;99093.37;1679231;85;21001;-42
2022/05/24 04:56:09;;;;;;;17.25;10.15;;;;;;;10.85;58.07;99090.02;1679052;85;21005;-42
2022/05/24 04:58:36;;;;;;;15.80;10.43;;;;;;;10.97;57.93;99088.23;1679118;85;21050;-41
2022/05/24 05:01:04;;;;;;;23.12;10.80;;;;;;;11.10;58.05;99089.56;1679159;85;21053;-42
2022/05/24 05:03:31;;;;;;;20.30;10.35;;;;;;;11.22;57.25;99088.77;1679039;85;23163;-42
2022/05/24 05:05:58;;;;;;;18.30;9.88;;;;;;;11.34;56.49;99095.28;1679044;85;21037;-41
2022/05/24 05:08:26;;;;;;;16.40;9.63;;;;;;;11.48;55.21;99097.37;1679037;85;21006;-42
2022/05/24 05:12:00;;;;;;;19.75;9.98;;;;;;;11.73;54.77;99094.37;1797325;79;22866;-41
2022/05/24 05:14:27;;;;;;;16.32;9.70;;;;;;;11.82;53.74;99097.34;1757252;81;21527;-41
2022/05/24 05:16:54;;;;;;;18.92;10.05;;;;;;;11.96;54.48;99096.13;1757067;81;23189;-41
2022/05/24 05:19:21;;;;;;;19.02;10.20;;;;;;;12.10;53.92;99101.10;1756964;81;21532;-41
2022/05/24 05:21:47;;;;;;;17.73;10.38;;;;;;;12.25;53.89;99104.72;1757078;81;21004;-41
2022/05/24 05:24:14;;;;;;;18.35;8.95;;;;;;;12.38;54.01;99105.22;1757004;81;20969;-41
2022/05/24 05:26:42;;;;;;;18.02;9.55;;;;;;;12.51;52.32;99101.81;1695468;83;20960;-41
2022/05/24 05:29:08;;;;;;;13.83;8.65;;;;;;;12.66;50.73;99103.27;1723602;83;21310;-41
2022/05/24 05:31:35;;;;;;;15.78;9.58;;;;;;;12.78;51.58;99094.81;1723636;83;21561;-42
2022/05/24 05:34:02;;;;;;;15.75;8.68;;;;;;;12.92;50.48;99103.05;1723632;83;21004;-41
2022/05/24 05:36:30;;;;;;;14.73;8.80;;;;;;;13.07;50.07;99096.48;1723718;83;21000;-41
2022/05/24 05:38:57;;;;;;;13.30;8.35;;;;;;;13.20;49.80;99099.13;1723977;83;20933;-41
2022/05/24 05:41:29;;;;;;;14.93;7.87;;;;;;;13.34;49.07;99099.17;1723627;83;21373;-41
2022/05/24 05:43:58;;;;;;;16.57;8.03;;;;;;;13.47;48.38;99097.65;1723493;83;21587;-41
2022/05/24 05:46:25;;;;;;;16.35;8.73;;;;;;;13.65;48.54;99101.02;1723617;83;21012;-41
2022/05/24 05:48:54;;;;;;;13.58;8.35;;;;;;;13.79;48.13;99103.77;1724106;83;21598;-42
2022/05/24 05:51:20;;;;;;;10.85;7.00;;;;;;;13.90;47.81;99100.45;1723831;83;21019;-42
2022/05/24 05:53:49;;;;;;;13.68;6.15;;;;;;;14.03;46.64;99108.47;1723099;83;21141;-42
2022/05/24 05:56:19;;;;;;;9.10;5.90;;;;;;;14.16;45.86;99106.92;1697560;84;20961;-42
2022/05/24 05:58:48;;;;;;;11.10;5.28;;;;;;;14.31;45.48;99108.48;1698257;84;21028;-42
2022/05/24 06:01:17;;;;;;;12.53;5.15;;;;;;;14.45;44.61;99111.81;1715647;83;21004;-42
2022/05/24 06:03:45;;;;;;;7.42;4.95;;;;;;;14.61;42.21;99115.50;1708354;84;21068;-42
2022/05/24 06:06:16;;;;;;;15.93;4.97;;;;;;;14.73;40.54;99113.72;1708212;84;21298;-42
2022/05/24 06:08:44;;;;;;;8.55;4.90;;;;;;;14.84;39.35;99106.30;1708240;84;21563;-42
2022/05/24 06:11:12;;;;;;;8.70;4.65;;;;;;;14.92;37.39;99105.09;1703592;83;21540;-42
2022/05/24 06:13:39;;;;;;;9.90;4.20;;;;;;;15.03;37.69;99108.58;1710704;83;21031;-42
2022/05/24 06:16:06;;;;;;;8.33;4.80;;;;;;;15.14;37.29;99107.18;1701266;84;21602;-42
2022/05/24 06:18:33;;;;;;;7.25;4.72;;;;;;;15.23;38.30;99113.78;1710629;83;23126;-43
2022/05/24 06:21:00;;;;;;;9.05;4.62;;;;;;;15.35;37.74;99115.86;1700829;84;21556;-42
2022/05/24 06:23:28;;;;;;;8.68;5.55;;;;;;;15.43;36.78;99111.94;1710158;83;20969;-42
2022/05/24 06:25:55;;;;;;;9.70;4.55;;;;;;;15.51;37.41;99116.99;1700633;84;20981;-42
2022/05/24 06:28:23;;;;;;;9.13;5.10;;;;;;;15.60;37.36;99116.55;1710354;83;21056;-42
2022/05/24 06:30:49;;;;;;;11.22;5.58;;;;;;;15.70;36.74;99115.72;1673070;84;21338;-42
2022/05/24 06:33:17;;;;;;;11.10;5.58;;;;;;;15.79;36.68;99113.32;1652852;86;21515;-42
2022/05/24 06:35:43;;;;;;;8.88;5.78;;;;;;;15.92;37.12;99113.06;1668302;85;21042;-42
2022/05/24 06:38:11;;;;;;;8.68;4.78;;;;;;;16.05;36.92;99114.13;1672543;85;20964;-42
2022/05/24 06:40:38;;;;;;;10.55;4.80;;;;;;;16.16;35.71;99110.55;1661019;85;21111;-42
2022/05/24 06:43:05;;;;;;;8.85;4.97;;;;;;;16.30;36.72;99114.53;1661106;86;21028;-42
2022/05/24 06:45:34;;;;;;;14.68;4.55;;;;;;;16.40;34.77;99108.20;1660587;86;21809;-42
2022/05/24 06:48:00;;;;;;;8.23;4.55;;;;;;;16.47;33.29;99110.27;1660838;86;21095;-42
2022/05/24 06:50:28;;;;;;;8.58;4.80;;;;;;;16.51;33.83;99107.49;1660727;85;21054;-42
2022/05/24 06:52:56;;;;;;;7.33;4.60;;;;;;;16.56;34.12;99109.80;1672722;85;21035;-42
2022/05/24 06:55:23;;;;;;;9.23;5.20;;;;;;;16.63;33.57;99108.98;1672659;85;21245;-42
2022/05/24 06:57:50;;;;;;;11.85;6.17;;;;;;;16.68;32.87;99116.17;1672976;85;21625;-42
2022/05/24 07:03:07;;;;;;;11.68;6.95;;;;;;;16.79;33.78;99108.64;1672588;85;20967;-42
2022/05/24 07:05:34;;;;;;;9.45;5.67;;;;;;;16.91;33.31;99111.44;1672976;85;21104;-42
2022/05/24 07:08:01;;;;;;;10.40;7.33;;;;;;;17.03;33.19;99116.99;1672729;85;21138;-42
2022/05/24 07:10:29;;;;;;;9.78;5.12;;;;;;;17.14;32.62;99114.89;1672417;84;21035;-43
2022/05/24 07:13:05;;;;;;;4.87;2.87;;;;;;;17.21;32.31;99106.02;1672944;85;21309;-43
2022/05/24 07:15:32;;;;;;;6.78;3.10;;;;;;;17.31;32.04;99120.18;1672643;85;21655;-42
2022/05/24 07:17:58;;;;;;;8.70;4.35;;;;;;;17.44;31.48;99112.77;1672802;85;21099;-42
2022/05/24 07:20:27;;;;;;;14.43;6.67;;;;;;;17.56;31.30;99116.34;1672784;85;21266;-42
2022/05/24 07:22:58;;;;;;;11.28;6.53;;;;;;;17.67;30.24;99110.91;1673121;85;20947;-42
2022/05/24 07:25:23;;;;;;;9.33;6.20;;;;;;;17.79;31.15;99120.56;1671644;85;21034;-42
2022/05/24 07:27:49;;;;;;;11.60;5.47;;;;;;;17.79;31.15;99120.56;1672707;85;21394;-42
2022/05/24 07:30:18;;;;;;;11.80;5.47;;;;;;;17.83;30.85;99124.61;1672558;85;21150;-42
2022/05/24 07:32:45;;;;;;;9.50;5.17;;;;;;;17.88;30.93;99127.67;1672548;85;21254;-42
2022/05/24 07:35:12;;;;;;;10.23;5.25;;;;;;;17.96;31.07;99122.25;1672488;85;20987;-42
2022/05/24 07:37:40;;;;;;;6.85;4.33;;;;;;;18.02;30.04;99126.09;1672755;85;21038;-42
2022/05/24 07:45:48;;;;;;;6.40;3.83;;;;;;;18.34;29.53;99116.00;1672660;85;21218;-42
2022/05/24 07:48:18;;;;;;;6.75;3.30;;;;;;;18.40;28.55;99123.92;1672724;85;20988;-42
2022/05/24 07:50:45;;;;;;;6.22;3.50;;;;;;;18.43;28.93;99124.47;1627633;87;21034;-42
2022/05/24 07:53:13;;;;;;;7.92;3.55;;;;;;;18.45;28.73;99128.93;1670103;86;21023;-42
2022/05/24 07:55:40;;;;;;;5.53;3.55;;;;;;;18.52;28.55;99121.97;1670126;86;21145;-42
2022/05/24 07:58:08;;;;;;;5.55;3.00;;;;;;;18.66;29.03;99125.86;1670051;86;20975;-42
2022/05/24 08:00:35;;;;;;;6.03;3.58;;;;;;;18.80;29.36;99130.32;1670161;86;21073;-42
2022/05/24 08:03:01;;;;;;;6.87;3.40;;;;;;;18.91;29.82;99133.66;1670298;86;21504;-42
2022/05/24 08:05:30;;;;;;;6.03;4.00;;;;;;;19.00;28.64;99127.61;1670245;86;21625;-42
2022/05/24 08:07:57;;;;;;;7.55;3.75;;;;;;;19.05;28.98;99132.61;1664055;86;21060;-43
2022/05/24 08:10:25;;;;;;;6.10;3.60;;;;;;;19.13;28.73;99127.75;1670327;86;21156;-42
2022/05/24 08:12:52;;;;;;;4.92;2.60;;;;;;;19.24;28.68;99124.98;1717522;83;21566;-42
2022/05/24 08:15:19;;;;;;;3.10;2.25;;;;;;;19.32;27.34;99129.12;1719367;83;20982;-42
2022/05/24 08:17:47;;;;;;;5.55;2.77;;;;;;;19.37;28.16;99127.25;1719203;83;20976;-42
2022/05/24 08:20:13;;;;;;;4.65;3.10;;;;;;;19.45;26.20;99123.80;1719082;83;20990;-42
2022/05/24 08:22:41;;;;;;;6.65;3.72;;;;;;;19.46;27.20;99122.61;1719016;83;21254;-42
2022/05/24 08:25:11;;;;;;;4.92;3.05;;;;;;;19.50;27.03;99121.34;1719008;83;21000;-42
2022/05/24 08:27:38;;;;;;;5.22;2.58;;;;;;;19.60;27.76;99125.06;1719060;83;21530;-42
2022/05/24 08:30:07;;;;;;;5.75;2.60;;;;;;;19.70;25.54;99118.56;1719088;83;21358;-42
2022/05/24 08:32:35;;;;;;;5.12;2.90;;;;;;;19.75;27.35;99122.15;1719656;83;20949;-42
2022/05/24 08:35:01;;;;;;;5.97;2.87;;;;;;;19.73;26.27;99125.16;1719162;83;22259;-42
2022/05/24 08:37:29;;;;;;;4.87;3.15;;;;;;;19.72;26.13;99124.98;1719116;83;21016;-42
2022/05/24 08:39:58;;;;;;;6.95;3.22;;;;;;;19.76;27.17;99117.42;1719121;83;21016;-42
2022/05/24 08:43:05;;;;;;;5.35;3.30;;;;;;;19.87;26.64;99116.00;1719378;83;21519;-42
2022/05/24 08:48:39;;;;;;;4.53;2.55;;;;;;;20.15;26.66;99111.80;1719208;83;21328;-42
2022/05/24 08:51:37;;;;;;;6.28;3.62;;;;;;;20.33;26.86;99108.67;1719341;83;21609;-42
2022/05/24 08:54:13;;;;;;;7.42;3.25;;;;;;;20.52;26.66;99113.91;1719190;83;20961;-42
2022/05/24 08:57:00;;;;;;;7.97;3.52;;;;;;;20.62;25.65;99110.85;1719373;83;21558;-42
2022/05/24 08:59:31;;;;;;;4.60;3.30;;;;;;;20.73;26.64;99111.95;1719283;83;21064;-42
2022/05/24 09:01:59;;;;;;;4.37;3.15;;;;;;;20.84;26.37;99112.45;1719261;83;23150;-42
2022/05/24 09:04:26;;;;;;;6.30;3.40;;;;;;;20.91;25.78;99107.38;1719435;83;20937;-43
2022/05/24 09:07:11;;;;;;;6.12;2.75;;;;;;;20.97;26.70;99108.37;1719216;83;20960;-43
2022/05/24 09:10:13;;;;;;;4.70;2.98;;;;;;;21.06;25.93;99108.51;1718766;83;20937;-42
2022/05/24 09:13:07;;;;;;;4.83;3.10;;;;;;;21.10;26.70;99112.73;1709221;83;20926;-43
2022/05/24 09:16:13;;;;;;;3.50;2.75;;;;;;;21.07;26.77;99112.22;1705512;84;21140;-42
2022/05/24 09:19:12;;;;;;;3.70;3.02;;;;;;;21.13;26.62;99107.75;1705611;84;20974;-43
2022/05/24 09:21:42;;;;;;;4.97;2.85;;;;;;;21.09;26.10;99101.54;1685357;84;21052;-42
2022/05/24 09:24:39;;;;;;;4.83;2.55;;;;;;;21.08;25.47;99093.09;1700647;83;21560;-42
2022/05/24 09:27:22;;;;;;;4.37;2.62;;;;;;;21.10;25.43;99104.47;1705726;84;21085;-42
2022/05/24 09:30:06;;;;;;;4.62;2.20;;;;;;;21.11;26.35;99102.46;1705699;84;21231;-42
2022/05/24 09:32:45;;;;;;;3.47;2.22;;;;;;;21.17;25.29;99102.91;1705485;84;20998;-42
2022/05/24 09:35:23;;;;;;;3.47;2.43;;;;;;;21.24;26.09;99098.59;1705707;84;21527;-42
2022/05/24 09:38:08;;;;;;;4.72;2.20;;;;;;;21.27;26.41;99104.41;1705616;84;21037;-42
2022/05/24 09:40:55;;;;;;;5.50;2.20;;;;;;;21.37;26.44;99101.96;1705421;84;21049;-43
2022/05/24 09:43:29;;;;;;;3.45;2.10;;;;;;;21.52;26.49;99108.61;1705918;84;21061;-42
2022/05/24 09:46:05;;;;;;;3.58;2.35;;;;;;;21.58;26.23;99106.86;1705623;84;21033;-42
2022/05/24 09:48:37;;;;;;;2.87;2.17;;;;;;;21.66;24.97;99106.20;1705544;84;21014;-42
2022/05/24 09:51:10;;;;;;;4.03;2.15;;;;;;;21.68;24.03;99096.89;1705568;84;21081;-42
2022/05/24 09:53:50;;;;;;;6.85;2.37;;;;;;;21.63;25.18;99096.66;1709368;83;21081;-42
2022/05/24 09:56:28;;;;;;;5.45;2.60;;;;;;;21.67;25.48;99090.42;1705574;84;21125;-43
2022/05/24 09:58:59;;;;;;;3.90;2.55;;;;;;;21.83;25.86;99088.17;1705710;83;20930;-42
2022/05/24 10:01:37;;;;;;;4.42;2.22;;;;;;;21.96;25.06;99088.36;1705751;84;21040;-43
2022/05/24 10:04:34;;;;;;;3.52;2.58;;;;;;;22.03;25.65;99089.50;1706035;84;21057;-43
2022/05/24 10:07:25;;;;;;;3.62;2.35;;;;;;;22.19;26.66;99089.21;1705690;84;21084;-42
2022/05/24 10:10:18;;;;;;;4.37;2.40;;;;;;;22.29;25.76;99086.11;1705862;84;21591;-43
2022/05/24 10:13:08;;;;;;;2.67;2.10;;;;;;;22.27;25.03;99089.16;1714085;83;21528;-42
2022/05/24 10:15:54;;;;;;;3.22;2.40;;;;;;;22.15;24.64;99088.56;1719398;83;21008;-43
2022/05/24 10:18:49;;;;;;;3.80;2.40;;;;;;;22.06;24.76;99084.49;1718844;83;20976;-41
2022/05/24 10:21:43;;;;;;;4.33;2.30;;;;;;;22.08;24.89;99092.31;1719305;83;20997;-42
2022/05/24 10:24:31;;;;;;;4.12;2.70;;;;;;;22.25;25.61;99088.22;1719393;83;21132;-42
2022/05/24 10:27:13;;;;;;;5.00;2.58;;;;;;;22.45;25.04;99092.10;1719481;83;21550;-44
2022/05/24 10:29:58;;;;;;;3.70;2.30;;;;;;;22.56;25.65;99090.36;1719420;83;21043;-41
2022/05/24 10:39:29;;;;;;;5.83;2.83;;;;;;;22.47;24.59;99088.27;1719655;83;21222;-42
2022/05/24 10:42:07;;;;;;;4.50;2.20;;;;;;;22.63;24.71;99090.11;1719214;83;20968;-42
2022/05/24 10:44:43;;;;;;;6.00;2.30;;;;;;;22.83;23.15;99084.48;1719258;83;20968;-42
2022/05/24 10:47:34;;;;;;;3.83;2.15;;;;;;;23.07;22.54;99084.05;1719179;83;21065;-42
2022/05/24 10:50:06;;;;;;;4.62;2.22;;;;;;;23.35;23.97;99078.23;1719590;83;21029;-42
2022/05/24 10:53:02;;;;;;;4.65;2.60;;;;;;;23.71;23.13;99074.14;1719155;83;21104;-42
2022/05/24 10:55:32;;;;;;;2.92;2.20;;;;;;;23.91;22.24;99065.45;1719010;83;20981;-42
2022/05/24 10:58:04;;;;;;;4.12;2.60;;;;;;;23.87;21.39;99071.11;1719302;83;21051;-42
2022/05/24 11:00:35;;;;;;;6.67;2.47;;;;;;;23.72;21.19;99060.47;1719225;83;21015;-42
2022/05/24 11:03:16;;;;;;;3.30;2.30;;;;;;;23.69;21.82;99059.37;1719154;83;21036;-43
2022/05/24 11:05:49;;;;;;;3.42;2.05;;;;;;;23.82;21.99;99063.41;1707578;83;21539;-42
2022/05/24 11:08:40;;;;;;;5.60;2.35;;;;;;;24.00;22.63;99059.94;1719061;83;20941;-42
2022/05/24 11:11:42;;;;;;;7.42;2.83;;;;;;;23.91;22.14;99057.15;1719006;83;20957;-42
2022/05/24 11:14:41;;;;;;;8.83;2.75;;;;;;;23.70;22.95;99065.68;1719279;83;20989;-42
2022/05/24 11:17:11;;;;;;;3.27;2.17;;;;;;;23.57;23.65;99074.09;1719688;83;21055;-42
2022/05/24 11:19:45;;;;;;;7.05;2.52;;;;;;;23.58;22.61;99067.30;1719156;83;23134;-42
2022/05/24 11:22:46;;;;;;;4.90;2.70;;;;;;;23.71;23.18;99065.23;1719335;83;21084;-42
2022/05/24 11:25:27;;;;;;;5.10;2.80;;;;;;;24.00;22.71;99072.41;1719165;83;20937;-42
2022/05/24 11:28:06;;;;;;;3.70;2.30;;;;;;;24.27;22.81;99076.65;1719209;83;21020;-42
2022/05/24 11:30:38;;;;;;;3.42;2.70;;;;;;;24.64;22.69;99066.40;1719394;83;21068;-43
2022/05/24 11:33:12;;;;;;;4.30;2.37;;;;;;;25.10;20.60;99065.16;1719646;83;21096;-43
2022/05/24 11:35:46;;;;;;;6.87;2.45;;;;;;;25.50;20.16;99064.91;1719081;83;20964;-43
2022/05/24 11:38:22;;;;;;;3.95;2.37;;;;;;;26.01;19.87;99068.26;1719472;83;21534;-43
2022/05/24 11:41:12;;;;;;;6.03;2.40;;;;;;;26.30;19.20;99072.59;1719595;83;21479;-43
2022/05/24 11:43:46;;;;;;;6.05;2.52;;;;;;;26.50;20.27;99080.95;1719394;83;21056;-42
2022/05/24 11:46:39;;;;;;;4.65;2.33;;;;;;;26.87;20.31;99068.33;1719206;83;23103;-43
2022/05/24 11:49:24;;;;;;;2.77;2.22;;;;;;;27.22;20.74;99069.23;1719309;83;20965;-43
2022/05/24 11:52:00;;;;;;;3.33;2.20;;;;;;;27.30;19.58;99067.48;1719272;83;21008;-43
2022/05/24 11:54:32;;;;;;;2.72;2.00;;;;;;;27.14;18.76;99061.13;1719442;83;21085;-43
2022/05/24 11:57:10;;;;;;;2.83;2.00;;;;;;;27.17;19.53;99060.16;1719344;83;21057;-43
2022/05/24 11:59:47;;;;;;;3.77;2.00;;;;;;;27.56;18.78;99067.05;1719379;83;23161;-42
2022/05/24 12:07:54;;;;;;;2.67;1.77;;;;;;;27.87;19.27;99068.69;1719213;83;21015;-42
2022/05/24 12:08:04;;;;;;;2.75;1.50;;;;;;;28.61;18.29;99065.65;1719095;83;21016;-42
2022/05/24 12:10:49;;;;;;;1.75;1.62;;;;;;;28.42;18.24;99063.74;1718991;83;21809;-44
2022/05/24 12:13:40;;;;;;;3.90;2.50;;;;;;;28.14;18.98;99067.56;1711601;83;22199;-43
2022/05/24 12:16:16;;;;;;;4.65;2.20;;;;;;;28.07;19.12;99068.73;1705624;84;21048;-42
2022/05/24 12:18:56;;;;;;;4.42;2.37;;;;;;;27.75;18.28;99064.18;1676972;83;21038;-43
2022/05/24 12:21:52;;;;;;;4.83;2.22;;;;;;;27.47;19.03;99062.33;1705699;84;21625;-42
2022/05/24 12:24:39;;;;;;;3.02;2.17;;;;;;;27.43;19.28;99066.55;1705555;84;21057;-42
2022/05/24 12:27:45;;;;;;;4.00;2.42;;;;;;;27.33;19.81;99067.90;1705556;83;21136;-42
2022/05/24 12:30:23;;;;;;;3.17;1.85;;;;;;;27.24;19.24;99068.15;1705467;84;21034;-42
2022/05/24 12:32:52;;;;;;;3.08;1.85;;;;;;;27.06;18.92;99065.52;1705583;84;20997;-42
2022/05/24 12:35:20;;;;;;;3.05;1.90;;;;;;;26.98;18.77;99062.20;1705547;84;20985;-42
2022/05/24 12:37:53;;;;;;;2.85;1.92;;;;;;;27.04;19.69;99066.64;1705677;84;21012;-42